This is the latest recevied weather packets stored in our database for station/object W3TMB. If no packets are shown the sender has not sent any weather packets the latest 10 day(s).
| Time | Temp. | Humidity | Pressure | Rain* | Wind** | Luminosity | Snow |
|---|---|---|---|---|---|---|---|
| 1777825134 | 12.22° C | 43% | 1011.8 hPa | 0 mm | - | 846 W/m² | - |
| 1777824830 | 12.78° C | 44% | 1011.8 hPa | 0 mm | - | 235 W/m² | - |
| 1777824527 | 12.22° C | 44% | 1011.8 hPa | 0 mm | - | 226 W/m² | - |
| 1777824224 | 12.22° C | 43% | 1012.1 hPa | 0 mm | - | 726 W/m² | - |
| 1777823919 | 12.22° C | 43% | 1012.1 hPa | 0 mm | - | 235 W/m² | - |
| 1777823617 | 12.78° C | 39% | 1012.4 hPa | 0 mm | - | 202 W/m² | - |
| 1777823314 | 12.22° C | 40% | 1012.3 hPa | 0 mm | - | 798 W/m² | - |
| 1777823012 | 12.22° C | 43% | 1012.1 hPa | 0 mm | - | 812 W/m² | - |
| 1777822709 | 12.22° C | 44% | 1012.3 hPa | 0 mm | - | 865 W/m² | - |
| 1777822407 | 11.67° C | 45% | 1012.5 hPa | 0 mm | - | 200 W/m² | - |
| 1777822104 | 11.67° C | 43% | 1012.5 hPa | 0 mm | - | 789 W/m² | - |
| 1777821802 | 11.67° C | 45% | 1012.2 hPa | 0 mm | - | 706 W/m² | - |
| 1777821499 | 11.11° C | 43% | 1012.6 hPa | 0 mm | - | 619 W/m² | - |
| 1777821197 | 10.56° C | 45% | 1012.6 hPa | 0 mm | - | 900 W/m² | - |
| 1777820894 | 10.56° C | 46% | 1012.6 hPa | 0 mm | - | 270 W/m² | - |
| 1777820589 | 10.56° C | 46% | 1012.7 hPa | 0 mm | - | 213 W/m² | - |
| 1777820286 | 10.56° C | 49% | 1012.6 hPa | 0 mm | - | 241 W/m² | - |
| 1777819984 | 10° C | 48% | 1012.9 hPa | 0 mm | - | 247 W/m² | - |
| 1777819681 | 10° C | 46% | 1012.7 hPa | 0 mm | - | 219 W/m² | - |
| 1777819380 | 10° C | 45% | 1012.8 hPa | 0 mm | - | 230 W/m² | - |
| 1777819076 | 10.56° C | 46% | 1012.9 hPa | 0 mm | - | 275 W/m² | - |
| 1777818772 | 10° C | 47% | 1012.8 hPa | 0 mm | - | 555 W/m² | - |
| 1777818469 | 10° C | 47% | 1012.9 hPa | 0 mm | - | 239 W/m² | - |
| 1777818166 | 10.56° C | 47% | 1012.8 hPa | 0 mm | - | 720 W/m² | - |
| 1777817863 | 10° C | 48% | 1012.9 hPa | 0 mm | - | 176 W/m² | - |
* Rain latest hour (hover to see other rain measurements)
** Current wind speed in m/s (hover to see current wind gust speed)